メインページ
METAR-TAF:

METAR-TAF

空港 :

アルアイン国際空港

アル・アイン, アラブ首長国連邦

緯度: 24-16N, 経度: 055-36E, 海抜: 265m

現時点の気象観測

当レポートは58分前の11:00(UTC)に作成
北西の風 9kt、西/北西からの間で変化する
気温 27°C
湿度 24%
気圧 1018 hPa
視程10km以上
1,500メートル以下は雲なし、積乱雲なし

METAR: OMAL 121100Z 32009KT 300V360 CAVOK 27/05 Q1018 NOSIG

時間: 15:58 (11:58 UTC)

予報

当レポートは58分前の11:00(UTC)に作成
予報は12日の 12時(UTC)から 13日の 18時(UTC)まで有効
北/北西の風 10kt
視程10km以上
1,500メートル以下は雲なし、積乱雲なし
12日の 19時(UTC)から 12日の 21時(UTC)まで徐々に
変向風 2kt
確率 30% :
13日の 01時(UTC)から 13日の 05時(UTC)まで一時的に
視程: 1500m
高度400ftの千切れ雲あり
13日の 08時(UTC)から 13日の 10時(UTC)まで徐々に
北西の風 10kt

TAF: OMAL 121100Z 1212/1318 33010KT CAVOK BECMG 1219/1221 VRB02KT PROB30 TEMPO 1301/1305 1500 BR BKN004 BECMG 1308/1310 31010KT

4,000以上の空港の気象観測と天気予報(METAR報とTAF報)

利用可能な観測所は地図上に黄色い丸と赤い丸で示す。

丸の上にカーソルを重ねると観測所名を参照できる。

次にクリックすると気象観測と天気予報を参照できる。

マップの切り替え:黒色「×」印の緑ボタンをクリックして拡大、「-」印の緑ボタンをクリックして縮小、緑色の三角印をクリックして隣りの地図に切り替え


METAR-TAF: